Time;durP1;ratioP1;P1;durP2;ratioP2;P2;SDS_P1;SDS_P2;PMS_P1;PMS_P2;Temp;Humidity;BMP_temperature;BMP_pressure;BME280_temperature;BME280_humidity;BME280_pressure;Samples;Min_cycle;Max_cycle;Signal;HPM_P1;HPM_P2
2022/07/29 00:02:40;;;;;;;2.03;1.30;;;10.90;99.90;;;;;;8341531;28;20239;-64
2022/07/29 00:06:41;;;;;;;1.23;1.10;;;10.90;99.90;;;;;;8337775;28;20205;-66
2022/07/29 00:10:42;;;;;;;2.03;1.17;;;10.80;99.90;;;;;;8352416;28;20265;-66
2022/07/29 00:14:43;;;;;;;2.60;1.20;;;10.80;99.90;;;;;;8347617;28;20214;-66
2022/07/29 00:18:44;;;;;;;2.20;1.27;;;10.70;99.90;;;;;;8323616;28;20231;-65
2022/07/29 00:22:45;;;;;;;2.40;1.20;;;10.70;99.90;;;;;;8328090;28;20195;-64
2022/07/29 00:26:45;;;;;;;1.63;0.93;;;10.60;1.00;;;;;;8332054;28;20191;-64
2022/07/29 00:30:46;;;;;;;1.57;1.03;;;10.60;1.00;;;;;;8340601;28;20208;-64
2022/07/29 00:39:06;;;;;;;1.50;1.37;;;10.40;1.00;;;;;;8336133;28;20220;-65
2022/07/29 00:43:07;;;;;;;1.77;1.13;;;10.30;1.00;;;;;;8330406;28;20218;-65
2022/07/29 00:47:09;;;;;;;2.23;1.10;;;10.30;1.00;;;;;;8332862;28;20277;-65
2022/07/29 00:51:11;;;;;;;2.00;1.27;;;10.30;1.00;;;;;;8324987;28;20254;-65
2022/07/29 00:55:15;;;;;;;1.73;0.80;;;10.20;1.00;;;;;;8317021;28;20198;-65
2022/07/29 00:59:16;;;;;;;1.93;1.30;;;10.20;1.00;;;;;;8322249;28;20233;-65
2022/07/29 01:03:17;;;;;;;1.70;1.30;;;10.10;1.00;;;;;;8321440;28;20253;-68
2022/07/29 01:07:18;;;;;;;2.10;1.60;;;10.10;1.00;;;;;;8349110;28;20241;-65
2022/07/29 01:11:19;;;;;;;1.73;1.10;;;10.10;1.00;;;;;;8327016;28;20205;-65
2022/07/29 01:15:21;;;;;;;4.27;1.50;;;10.10;1.00;;;;;;8342048;28;20195;-65
2022/07/29 01:20:12;;;;;;;3.70;2.03;;;10.10;1.00;;;;;;8327467;28;20192;-65
2022/07/29 01:24:31;;;;;;;2.83;1.30;;;9.90;1.00;;;;;;8328403;28;20195;-65
2022/07/29 01:28:54;;;;;;;2.17;1.40;;;9.80;1.30;;;;;;8340149;28;20187;-65
2022/07/29 01:33:00;;;;;;;1.20;1.07;;;9.70;14.00;;;;;;8342141;28;20213;-65
2022/07/29 01:37:20;;;;;;;2.43;1.53;;;9.70;39.50;;;;;;8343421;28;20268;-65
2022/07/29 01:41:22;;;;;;;2.40;1.27;;;9.60;68.60;;;;;;8323221;28;20225;-65
2022/07/29 01:45:47;;;;;;;2.37;1.20;;;9.50;85.20;;;;;;8323094;28;20209;-65
2022/07/29 01:49:52;;;;;;;2.10;1.50;;;9.40;98.50;;;;;;8324914;28;20197;-65
2022/07/29 01:54:02;;;;;;;2.93;1.43;;;9.40;99.90;;;;;;8346334;28;20221;-65
2022/07/29 01:58:05;;;;;;;2.37;1.10;;;9.30;99.90;;;;;;8337988;28;20179;-65
2022/07/29 02:02:10;;;;;;;2.47;1.13;;;9.30;99.90;;;;;;8322628;28;20547;-65
2022/07/29 02:06:12;;;;;;;5.03;2.50;;;9.30;99.90;;;;;;8359016;28;20185;-65
2022/07/29 02:10:14;;;;;;;2.17;1.30;;;9.20;99.90;;;;;;8341956;28;20274;-65
2022/07/29 02:14:17;;;;;;;1.77;1.57;;;9.20;99.90;;;;;;8324668;28;20221;-65
2022/07/29 02:18:20;;;;;;;1.83;1.20;;;9.20;99.90;;;;;;8339867;28;20201;-65
2022/07/29 02:22:22;;;;;;;2.10;1.30;;;9.10;99.90;;;;;;8327864;28;20194;-65
2022/07/29 02:26:25;;;;;;;2.07;1.20;;;9.00;99.90;;;;;;8329112;28;20191;-65
2022/07/29 02:30:28;;;;;;;1.90;1.43;;;9.00;99.90;;;;;;8323351;28;20185;-65
2022/07/29 02:34:29;;;;;;;2.30;1.57;;;9.00;99.90;;;;;;8339104;28;20262;-65
2022/07/29 02:42:51;;;;;;;3.07;1.60;;;9.00;1.00;;;;;;8337372;28;20235;-65
2022/07/29 02:47:10;;;;;;;1.87;1.23;;;9.00;1.00;;;;;;8322918;28;20186;-65
2022/07/29 02:51:23;;;;;;;2.07;1.40;;;9.00;1.00;;;;;;8325566;28;20237;-65
2022/07/29 02:55:36;;;;;;;2.37;1.43;;;9.00;1.00;;;;;;8338571;28;20635;-65
2022/07/29 02:59:41;;;;;;;2.97;1.43;;;9.00;1.00;;;;;;8341531;28;20189;-65
2022/07/29 03:03:45;;;;;;;2.97;1.50;;;9.00;1.00;;;;;;8331731;28;20189;-65
2022/07/29 03:07:52;;;;;;;2.03;1.60;;;9.00;1.00;;;;;;8344971;28;20251;-66
2022/07/29 03:11:54;;;;;;;1.90;1.30;;;9.00;1.00;;;;;;8331566;28;20229;-65
2022/07/29 03:15:55;;;;;;;3.27;1.60;;;9.00;1.00;;;;;;8338007;28;20277;-65
2022/07/29 03:19:56;;;;;;;2.10;1.50;;;9.10;1.00;;;;;;8337133;28;20189;-65
2022/07/29 03:23:57;;;;;;;2.60;1.67;;;9.20;1.00;;;;;;8340454;28;20281;-65
2022/07/29 03:27:58;;;;;;;2.27;1.47;;;9.20;1.00;;;;;;8340231;28;20201;-65
2022/07/29 03:31:59;;;;;;;3.53;1.57;;;9.20;1.00;;;;;;8324913;28;20225;-65
2022/07/29 03:36:02;;;;;;;5.00;1.93;;;9.30;1.00;;;;;;8326592;28;20289;-67
2022/07/29 03:40:07;;;;;;;2.63;1.73;;;9.30;1.00;;;;;;8325136;28;20178;-65
2022/07/29 03:44:08;;;;;;;3.77;1.40;;;9.50;1.00;;;;;;8335264;28;20186;-66
2022/07/29 03:48:15;;;;;;;2.53;1.50;;;9.80;99.90;;;;;;8323916;28;20190;-65
2022/07/29 03:52:16;;;;;;;2.47;1.57;;;10.00;99.90;;;;;;8327972;28;20216;-64
2022/07/29 03:56:19;;;;;;;1.93;1.37;;;10.30;99.90;;;;;;8324763;28;20190;-65
2022/07/29 04:00:20;;;;;;;2.57;1.60;;;10.60;99.90;;;;;;8326797;28;20186;-65
2022/07/29 04:04:21;;;;;;;2.87;1.50;;;11.30;98.40;;;;;;8319875;28;20189;-65
2022/07/29 04:08:22;;;;;;;4.37;1.80;;;12.40;1.00;;;;;;8336933;28;20191;-65
2022/07/29 04:12:23;;;;;;;2.30;1.60;;;13.80;99.90;;;;;;8339131;28;20211;-66
2022/07/29 04:16:24;;;;;;;2.97;1.67;;;15.00;99.90;;;;;;8347743;28;20219;-65
2022/07/29 04:20:25;;;;;;;4.03;1.70;;;15.70;93.60;;;;;;8336105;28;20177;-65
2022/07/29 04:24:27;;;;;;;3.00;1.73;;;16.00;44.10;;;;;;8319698;28;20549;-65
2022/07/29 04:28:28;;;;;;;3.33;1.47;;;15.80;51.80;;;;;;8332406;28;20233;-65
2022/07/29 04:32:29;;;;;;;3.70;2.20;;;15.40;90.30;;;;;;8332425;28;20241;-65
2022/07/29 04:36:29;;;;;;;4.40;2.20;;;15.10;90.00;;;;;;8344532;28;20183;-65
2022/07/29 04:40:32;;;;;;;3.63;2.03;;;14.90;92.90;;;;;;8356468;28;20186;-65
2022/07/29 04:44:33;;;;;;;3.90;2.17;;;14.80;99.90;;;;;;8357223;28;20186;-65
2022/07/29 04:48:34;;;;;;;2.70;1.80;;;14.60;99.90;;;;;;8328574;28;20190;-65
2022/07/29 04:52:35;;;;;;;3.17;2.30;;;14.50;99.90;;;;;;8342371;28;20214;-65
2022/07/29 04:56:36;;;;;;;5.40;2.27;;;14.40;99.90;;;;;;8337883;28;20182;-65
2022/07/29 05:00:39;;;;;;;4.60;1.97;;;14.30;99.90;;;;;;8326771;28;20205;-65
2022/07/29 05:04:39;;;;;;;2.77;2.03;;;14.20;99.90;;;;;;8328694;28;20261;-65
2022/07/29 05:08:40;;;;;;;3.33;2.30;;;14.20;99.90;;;;;;8320799;28;20186;-65
2022/07/29 05:12:41;;;;;;;5.37;2.30;;;14.40;99.90;;;;;;8364745;28;20218;-65
2022/07/29 05:16:43;;;;;;;3.13;2.73;;;14.50;99.90;;;;;;8341747;28;20268;-65
2022/07/29 05:20:43;;;;;;;3.97;2.00;;;14.80;99.90;;;;;;8323902;28;20208;-65
2022/07/29 05:24:44;;;;;;;3.50;1.93;;;15.00;99.90;;;;;;8358239;28;20420;-65
2022/07/29 05:28:45;;;;;;;4.57;1.80;;;15.50;99.90;;;;;;8345429;28;20190;-65
2022/07/29 05:32:47;;;;;;;2.97;1.67;;;16.00;90.70;;;;;;8354963;28;20241;-65
2022/07/29 05:36:47;;;;;;;3.67;2.00;;;16.50;30.30;;;;;;8342279;28;20257;-65
2022/07/29 05:40:48;;;;;;;6.47;1.83;;;17.00;1.00;;;;;;8344624;28;20181;-65
2022/07/29 05:44:49;;;;;;;5.97;2.00;;;17.60;1.00;;;;;;8337201;28;20209;-65
2022/07/29 05:48:50;;;;;;;4.10;1.87;;;18.00;1.00;;;;;;8323582;28;20182;-65
2022/07/29 05:52:50;;;;;;;4.13;1.90;;;18.20;1.00;;;;;;8344547;28;20296;-65
2022/07/29 05:56:51;;;;;;;3.07;1.70;;;18.40;1.00;;;;;;8345944;28;20241;-65
2022/07/29 06:00:52;;;;;;;5.03;1.80;;;18.60;1.00;;;;;;8321574;28;20193;-65
2022/07/29 06:04:53;;;;;;;4.73;2.10;;;18.60;1.00;;;;;;8342963;28;20189;-65
2022/07/29 06:08:54;;;;;;;2.40;1.83;;;18.70;1.00;;;;;;8333142;28;20284;-65
2022/07/29 06:12:55;;;;;;;6.57;1.93;;;18.90;1.00;;;;;;8335542;28;20233;-65
2022/07/29 06:16:55;;;;;;;8.30;2.50;;;19.10;1.00;;;;;;8324125;28;20288;-65
2022/07/29 06:20:56;;;;;;;4.37;2.00;;;19.40;1.00;;;;;;8338475;28;20200;-65
2022/07/29 06:24:57;;;;;;;5.27;2.90;;;19.60;1.00;;;;;;8325850;28;20229;-66
2022/07/29 06:28:58;;;;;;;6.37;1.80;;;19.80;1.00;;;;;;8355101;28;20193;-66
2022/07/29 06:33:00;;;;;;;2.63;1.70;;;20.10;1.00;;;;;;8329480;28;20222;-66
2022/07/29 06:37:05;;;;;;;4.30;1.63;;;20.30;1.00;;;;;;8343788;28;20181;-66
2022/07/29 06:41:12;;;;;;;5.10;2.20;;;20.50;1.00;;;;;;8340229;28;20199;-65
2022/07/29 06:45:12;;;;;;;5.40;2.23;;;20.60;1.00;;;;;;8341171;28;20174;-66
2022/07/29 06:49:14;;;;;;;3.47;2.07;;;20.80;1.00;;;;;;8338647;28;20189;-65
2022/07/29 06:53:15;;;;;;;5.50;2.27;;;21.00;1.00;;;;;;8338168;28;20292;-66
2022/07/29 06:57:15;;;;;;;8.57;2.43;;;21.10;1.00;;;;;;8324730;28;20182;-66
2022/07/29 07:01:16;;;;;;;8.40;2.13;;;21.20;1.00;;;;;;8320044;28;20191;-67
2022/07/29 07:05:17;;;;;;;6.50;1.70;;;21.40;1.00;;;;;;8329304;28;20187;-65
2022/07/29 07:09:17;;;;;;;6.17;2.03;;;21.60;1.00;;;;;;8320500;28;20195;-65
2022/07/29 07:13:19;;;;;;;2.67;1.80;;;21.80;1.00;;;;;;8336435;28;20222;-65
2022/07/29 07:17:20;;;;;;;5.77;2.63;;;21.80;1.00;;;;;;8325234;28;20186;-65
2022/07/29 07:21:20;;;;;;;4.30;2.50;;;22.20;1.00;;;;;;8326251;28;20192;-65
2022/07/29 07:25:21;;;;;;;2.60;1.97;;;22.40;1.00;;;;;;8328214;28;20189;-65
2022/07/29 07:29:22;;;;;;;6.00;2.40;;;22.50;1.00;;;;;;8324883;28;20312;-65
2022/07/29 07:33:23;;;;;;;6.40;2.50;;;22.70;1.00;;;;;;8317867;28;20210;-64
2022/07/29 07:37:24;;;;;;;4.70;2.30;;;23.00;1.00;;;;;;8325697;28;20223;-64
2022/07/29 07:41:25;;;;;;;10.97;2.70;;;23.10;1.00;;;;;;8337945;28;20190;-65
2022/07/29 07:45:26;;;;;;;4.80;2.77;;;23.20;1.00;;;;;;8340113;28;20193;-65
2022/07/29 07:49:27;;;;;;;6.43;2.73;;;23.40;1.00;;;;;;8355944;28;20196;-65
2022/07/29 07:53:29;;;;;;;42.23;6.03;;;23.70;1.00;;;;;;8327024;28;20535;-64
2022/07/29 07:57:30;;;;;;;7.67;2.60;;;24.20;1.00;;;;;;8333540;28;20277;-63
2022/07/29 08:01:31;;;;;;;7.57;2.77;;;24.60;1.00;;;;;;8345948;28;20186;-63
2022/07/29 08:05:32;;;;;;;3.70;2.43;;;25.00;1.00;;;;;;8328455;28;20190;-63
2022/07/29 08:09:34;;;;;;;4.57;2.20;;;24.90;1.00;;;;;;8341842;28;20228;-63
2022/07/29 08:13:35;;;;;;;5.17;2.27;;;24.80;1.00;;;;;;8338171;28;20210;-63
2022/07/29 08:17:35;;;;;;;12.17;2.50;;;24.60;1.00;;;;;;8335997;28;20196;-68
2022/07/29 08:21:36;;;;;;;6.27;2.20;;;24.70;1.00;;;;;;8320306;28;20249;-68
2022/07/29 08:25:41;;;;;;;4.23;2.53;;;24.60;1.00;;;;;;8324358;28;20182;-68
2022/07/29 08:29:42;;;;;;;6.30;2.70;;;24.70;1.00;;;;;;8343842;28;20189;-67
2022/07/29 08:33:43;;;;;;;3.17;2.10;;;24.70;1.00;;;;;;8324127;28;20245;-68
2022/07/29 08:37:44;;;;;;;5.47;2.30;;;24.70;1.00;;;;;;8341537;28;20197;-67
2022/07/29 08:41:44;;;;;;;6.03;2.30;;;24.60;1.00;;;;;;8340563;28;20182;-68
2022/07/29 08:45:48;;;;;;;5.43;2.50;;;24.60;1.00;;;;;;8319250;28;20185;-69
2022/07/29 08:49:49;;;;;;;5.40;2.07;;;24.70;1.00;;;;;;8351433;28;20197;-68
2022/07/29 08:53:50;;;;;;;9.50;2.70;;;25.00;1.00;;;;;;8323084;28;20288;-68
2022/07/29 08:57:51;;;;;;;4.67;2.67;;;25.50;1.00;;;;;;8336630;28;20177;-70
2022/07/29 09:01:54;;;;;;;3.47;2.50;;;25.80;1.00;;;;;;8325315;28;20189;-70
2022/07/29 09:05:54;;;;;;;4.90;2.20;;;26.00;1.00;;;;;;8325189;28;20193;-68
2022/07/29 09:09:56;;;;;;;4.23;2.20;;;26.30;1.00;;;;;;8326454;28;20182;-68
2022/07/29 09:13:57;;;;;;;4.13;2.03;;;26.40;1.00;;;;;;8324014;28;20332;-66
2022/07/29 09:17:58;;;;;;;3.63;2.20;;;26.70;1.00;;;;;;8355878;28;20189;-64
2022/07/29 09:22:01;;;;;;;3.30;2.33;;;26.80;1.00;;;;;;8348256;28;20182;-65
2022/07/29 09:26:06;;;;;;;2.43;1.80;;;27.10;1.00;;;;;;8320806;28;20215;-65
2022/07/29 09:30:13;;;;;;;4.40;1.88;;;27.20;1.00;;;;;;8337708;28;20352;-65
2022/07/29 09:34:16;;;;;;;4.25;1.90;;;27.60;1.00;;;;;;8344601;28;20237;-64
2022/07/29 09:38:17;;;;;;;3.15;1.88;;;27.90;1.00;;;;;;8359488;28;20178;-66
2022/07/29 09:42:29;;;;;;;5.80;2.00;;;28.00;1.00;;;;;;8327383;28;20201;-64
2022/07/29 09:46:29;;;;;;;3.15;1.50;;;27.80;1.00;;;;;;8323945;28;20329;-68
2022/07/29 09:50:41;;;;;;;6.65;1.67;;;27.80;1.00;;;;;;8358559;28;20217;-68
2022/07/29 09:54:41;;;;;;;3.55;1.70;;;27.60;1.00;;;;;;8327509;28;20212;-64
2022/07/29 09:58:42;;;;;;;2.90;1.55;;;27.50;1.00;;;;;;8346552;28;20181;-65
2022/07/29 10:02:44;;;;;;;2.58;1.70;;;27.40;1.00;;;;;;8329107;28;20269;-63
2022/07/29 10:06:59;;;;;;;3.55;1.70;;;27.30;1.00;;;;;;8362599;28;20182;-62
2022/07/29 10:11:11;;;;;;;3.73;1.70;;;27.30;1.00;;;;;;8345315;28;20182;-63
2022/07/29 10:15:11;;;;;;;6.32;1.48;;;27.20;1.00;;;;;;8347873;28;20206;-67
2022/07/29 10:19:13;;;;;;;6.57;1.67;;;27.30;1.00;;;;;;8325548;28;20182;-67
2022/07/29 10:23:14;;;;;;;2.42;1.60;;;27.40;1.00;;;;;;8344880;28;20183;-66
2022/07/29 10:27:15;;;;;;;3.42;1.60;;;27.70;1.00;;;;;;8338119;28;20304;-64
2022/07/29 10:31:27;;;;;;;5.25;1.92;;;28.00;1.00;;;;;;8345799;28;20233;-65
2022/07/29 10:35:39;;;;;;;5.65;1.88;;;28.30;1.00;;;;;;8343363;28;20193;-65
2022/07/29 10:44:41;;;;;;;6.43;1.90;;;28.70;1.00;;;;;;8319868;28;20228;-65
2022/07/29 10:49:04;;;;;;;3.17;1.50;;;28.80;1.00;;;;;;8324884;28;20182;-66
2022/07/29 10:53:05;;;;;;;4.68;1.60;;;28.90;1.00;;;;;;8337476;28;20216;-68
2022/07/29 10:57:22;;;;;;;2.22;1.35;;;28.80;1.00;;;;;;8332091;28;20182;-65
2022/07/29 11:01:30;;;;;;;4.70;1.48;;;28.60;1.00;;;;;;8333878;28;20280;-66
2022/07/29 11:05:55;;;;;;;1.73;1.25;;;28.40;1.00;;;;;;8324303;28;20231;-65
2022/07/29 11:10:15;;;;;;;4.18;1.50;;;28.10;99.90;;;;;;8323770;28;20210;-67
2022/07/29 11:14:17;;;;;;;4.53;1.30;;;28.10;99.90;;;;;;8350060;28;20206;-65
2022/07/29 11:18:18;;;;;;;4.38;1.67;;;28.20;99.90;;;;;;8325828;28;20182;-65
2022/07/29 11:22:35;;;;;;;2.15;1.38;;;28.40;99.90;;;;;;8341945;28;20312;-64
2022/07/29 11:26:37;;;;;;;4.05;1.67;;;28.40;99.90;;;;;;8327845;28;20272;-65
2022/07/29 11:31:08;;;;;;;2.03;1.30;;;28.40;99.90;;;;;;8322823;28;20181;-71
2022/07/29 11:35:23;;;;;;;3.40;1.60;;;28.30;99.90;;;;;;8308524;28;20190;-66
2022/07/29 11:39:27;;;;;;;3.80;1.60;;;28.30;1.00;;;;;;8340702;28;20185;-65
2022/07/29 11:43:51;;;;;;;6.00;1.50;;;28.30;99.90;;;;;;8320602;28;20186;-66
2022/07/29 11:47:54;;;;;;;4.82;1.40;;;28.10;99.90;;;;;;8324337;28;20189;-65
2022/07/29 11:51:57;;;;;;;4.10;1.70;;;28.10;99.90;;;;;;8333232;28;20198;-66
2022/07/29 11:55:59;;;;;;;2.38;1.50;;;28.10;99.90;;;;;;8332713;28;20308;-66
2022/07/29 12:00:00;;;;;;;3.90;1.40;;;28.30;99.90;;;;;;8310283;28;20259;-66
2022/07/29 12:04:08;;;;;;;18.55;2.00;;;28.50;99.90;;;;;;8307646;28;20218;-70
2022/07/29 12:08:10;;;;;;;4.55;1.55;;;28.60;99.90;;;;;;8352506;28;20186;-65
2022/07/29 12:12:15;;;;;;;5.78;1.60;;;28.70;99.90;;;;;;8325077;28;20229;-67
2022/07/29 12:16:16;;;;;;;4.55;1.73;;;28.70;99.90;;;;;;8314009;28;20225;-63
2022/07/29 12:20:29;;;;;;;4.60;1.88;;;28.50;99.90;;;;;;8289124;28;20526;-67
2022/07/29 12:24:43;;;;;;;7.43;2.08;;;28.40;1.00;;;;;;8309171;28;20309;-65
2022/07/29 12:28:44;;;;;;;4.32;1.80;;;28.50;1.00;;;;;;8334606;28;20221;-65
2022/07/29 12:32:47;;;;;;;2.95;1.35;;;28.40;1.00;;;;;;8336359;28;20244;-66
2022/07/29 12:36:49;;;;;;;6.57;1.63;;;28.50;99.90;;;;;;8319545;28;20192;-65
2022/07/29 12:40:51;;;;;;;3.03;1.50;;;28.70;1.00;;;;;;8335126;28;20214;-66
2022/07/29 12:44:52;;;;;;;4.18;1.30;;;28.80;1.00;;;;;;8339324;28;20194;-65
2022/07/29 12:48:54;;;;;;;3.85;1.75;;;29.00;1.00;;;;;;8326896;28;20267;-67
2022/07/29 12:53:09;;;;;;;5.13;1.60;;;29.10;1.00;;;;;;8328160;28;20243;-65
2022/07/29 12:57:10;;;;;;;2.90;1.70;;;29.10;1.00;;;;;;8333152;28;20185;-66
2022/07/29 13:01:16;;;;;;;2.72;1.80;;;29.00;1.00;;;;;;8319726;28;20174;-65
2022/07/29 13:05:17;;;;;;;2.72;1.63;;;28.90;1.00;;;;;;8333920;28;20245;-67
2022/07/29 13:09:22;;;;;;;5.25;1.80;;;29.00;1.00;;;;;;8335995;28;20182;-65
2022/07/29 13:13:22;;;;;;;2.75;1.80;;;29.20;1.00;;;;;;8340860;28;20425;-66
2022/07/29 13:17:23;;;;;;;5.15;1.92;;;29.20;1.00;;;;;;8327572;28;20500;-67
2022/07/29 13:21:24;;;;;;;5.35;2.50;;;29.40;1.00;;;;;;8324639;28;20190;-66
2022/07/29 13:25:27;;;;;;;4.25;1.95;;;29.60;99.90;;;;;;8335125;28;20186;-68
2022/07/29 13:29:28;;;;;;;2.95;2.00;;;29.70;99.90;;;;;;8359697;28;20220;-65
2022/07/29 13:33:29;;;;;;;5.82;1.90;;;29.80;99.90;;;;;;8338999;28;20582;-66
2022/07/29 13:37:32;;;;;;;7.25;1.83;;;29.90;99.90;;;;;;8344533;28;20197;-67
2022/07/29 13:41:33;;;;;;;6.85;2.05;;;29.70;99.90;;;;;;8342202;28;20210;-66
2022/07/29 13:45:34;;;;;;;4.18;1.95;;;29.50;99.90;;;;;;8307613;28;20227;-67
2022/07/29 13:49:35;;;;;;;3.47;1.70;;;29.60;99.90;;;;;;8276384;28;20198;-66
2022/07/29 13:53:36;;;;;;;6.60;2.00;;;29.40;99.90;;;;;;8252166;28;20249;-65
2022/07/29 13:57:37;;;;;;;4.32;2.10;;;29.30;99.90;;;;;;8267820;28;20238;-65
2022/07/29 14:01:41;;;;;;;3.30;1.65;;;29.20;99.90;;;;;;8273020;28;20204;-66
2022/07/29 14:05:41;;;;;;;3.13;1.75;;;29.00;99.90;;;;;;8271191;28;20190;-65
2022/07/29 14:09:42;;;;;;;2.08;1.60;;;28.90;99.90;;;;;;8254902;28;20200;-66
2022/07/29 14:13:43;;;;;;;3.13;1.83;;;28.90;99.90;;;;;;8272423;28;20269;-65
2022/07/29 14:17:44;;;;;;;7.05;1.90;;;28.90;99.90;;;;;;8273428;28;20187;-65
2022/07/29 14:21:45;;;;;;;3.60;1.95;;;29.00;99.90;;;;;;8278032;28;20218;-65
2022/07/29 14:25:46;;;;;;;3.53;1.73;;;29.10;99.90;;;;;;8262317;28;20212;-66
2022/07/29 14:29:47;;;;;;;2.17;1.77;;;29.20;99.90;;;;;;8262359;28;20279;-66
2022/07/29 14:33:48;;;;;;;2.55;1.80;;;29.10;99.90;;;;;;8275078;28;20242;-65
2022/07/29 14:37:49;;;;;;;3.63;1.77;;;29.00;99.90;;;;;;8253576;28;20194;-66
2022/07/29 14:41:50;;;;;;;3.63;1.65;;;29.10;99.90;;;;;;8259593;28;20999;-66
2022/07/29 14:45:51;;;;;;;4.13;1.52;;;29.20;99.90;;;;;;8270946;28;20275;-64
2022/07/29 14:49:52;;;;;;;1.52;1.38;;;29.10;99.90;;;;;;8254968;28;20482;-65
2022/07/29 14:53:53;;;;;;;4.47;1.95;;;29.10;99.90;;;;;;8261000;28;20221;-66
2022/07/29 14:57:54;;;;;;;4.72;1.50;;;29.20;99.90;;;;;;8255832;28;20291;-65
2022/07/29 15:01:55;;;;;;;2.75;1.88;;;28.90;99.90;;;;;;8275824;28;20183;-63
2022/07/29 15:05:56;;;;;;;7.20;1.95;;;28.60;99.90;;;;;;8258345;28;20191;-63
2022/07/29 15:09:57;;;;;;;6.53;2.10;;;28.50;99.90;;;;;;8272070;28;20247;-64
2022/07/29 15:13:58;;;;;;;5.38;1.65;;;28.50;99.90;;;;;;8255965;28;20250;-64
2022/07/29 15:17:59;;;;;;;2.20;1.50;;;28.50;99.90;;;;;;8258541;28;20223;-64
2022/07/29 15:22:00;;;;;;;4.22;1.70;;;28.30;99.90;;;;;;8271971;28;20222;-64
2022/07/29 15:26:00;;;;;;;16.80;3.15;;;28.30;99.90;;;;;;8267673;28;20191;-64
2022/07/29 15:30:01;;;;;;;7.35;1.98;;;28.40;99.90;;;;;;8274745;28;20270;-64
2022/07/29 15:34:02;;;;;;;5.28;1.65;;;28.50;99.90;;;;;;8252066;28;20216;-64
2022/07/29 15:38:03;;;;;;;4.30;2.00;;;28.50;99.90;;;;;;8257408;28;20203;-66
2022/07/29 15:42:04;;;;;;;2.63;1.90;;;28.60;99.90;;;;;;8267443;28;20262;-65
2022/07/29 15:50:24;;;;;;;3.53;1.80;;;28.40;99.90;;;;;;8267919;28;20215;-64
2022/07/29 15:54:26;;;;;;;3.42;1.73;;;28.10;99.90;;;;;;8252240;28;20211;-65
2022/07/29 15:58:27;;;;;;;2.42;1.67;;;27.80;99.90;;;;;;8258266;28;20184;-64
2022/07/29 16:02:27;;;;;;;8.48;2.10;;;27.60;99.90;;;;;;8254546;28;20203;-63
2022/07/29 16:06:28;;;;;;;3.80;2.55;;;27.60;99.90;;;;;;8254489;28;20198;-64
2022/07/29 16:10:29;;;;;;;3.75;2.25;;;27.60;99.90;;;;;;8252340;28;20198;-65
2022/07/29 16:14:30;;;;;;;4.88;1.85;;;27.70;99.90;;;;;;8257264;28;20278;-65
2022/07/29 16:18:31;;;;;;;6.53;3.05;;;27.80;99.90;;;;;;8270059;28;20199;-65
2022/07/29 16:22:32;;;;;;;2.40;1.77;;;27.70;99.90;;;;;;8267397;28;20237;-67
2022/07/29 16:26:33;;;;;;;3.63;1.67;;;27.70;99.90;;;;;;8251210;28;20200;-63
2022/07/29 16:30:35;;;;;;;3.13;1.70;;;27.60;99.90;;;;;;8271323;28;20275;-63
2022/07/29 16:34:36;;;;;;;5.40;2.10;;;27.40;1.00;;;;;;8253142;28;20271;-63
2022/07/29 16:38:37;;;;;;;3.90;2.00;;;27.30;1.00;;;;;;8272482;28;20186;-63
2022/07/29 16:42:37;;;;;;;5.37;2.40;;;27.20;1.00;;;;;;8268913;28;20638;-64
2022/07/29 16:46:38;;;;;;;4.87;1.80;;;27.30;1.00;;;;;;8283149;28;20197;-65
2022/07/29 16:50:39;;;;;;;4.77;1.80;;;27.30;1.00;;;;;;8261250;28;20211;-64
2022/07/29 16:54:41;;;;;;;2.37;1.50;;;27.40;1.00;;;;;;8256747;28;20215;-65
2022/07/29 16:58:42;;;;;;;6.93;1.83;;;27.40;1.00;;;;;;8264347;28;20196;-66
2022/07/29 17:02:42;;;;;;;6.37;2.23;;;27.20;1.00;;;;;;8259606;28;20185;-65
2022/07/29 17:06:43;;;;;;;4.30;2.00;;;26.90;1.00;;;;;;8286508;28;20190;-64
2022/07/29 17:10:47;;;;;;;13.03;2.40;;;26.70;1.00;;;;;;8267569;28;20274;-63
2022/07/29 17:14:48;;;;;;;3.67;1.90;;;26.60;1.00;;;;;;8266252;28;20325;-70
2022/07/29 17:18:51;;;;;;;3.80;1.87;;;26.70;1.00;;;;;;8282905;28;20187;-64
2022/07/29 17:22:52;;;;;;;4.30;2.10;;;26.80;1.00;;;;;;8265659;28;20274;-64
2022/07/29 17:26:53;;;;;;;3.83;2.07;;;26.80;1.00;;;;;;8267286;28;20187;-65
2022/07/29 17:30:54;;;;;;;5.67;2.30;;;26.90;1.00;;;;;;8262674;28;20191;-64
2022/07/29 17:34:54;;;;;;;5.57;2.30;;;27.20;1.00;;;;;;8278756;28;20602;-64
2022/07/29 17:38:59;;;;;;;4.67;1.93;;;27.60;1.00;;;;;;8264468;28;20233;-64
2022/07/29 17:43:00;;;;;;;6.80;3.72;;;28.00;1.00;;;;;;8268242;28;20191;-65
2022/07/29 17:47:01;;;;;;;5.78;2.53;;;28.40;99.90;;;;;;8278866;28;20192;-64
2022/07/29 17:51:02;;;;;;;4.30;2.45;;;28.80;99.90;;;;;;8278176;28;20252;-66
2022/07/29 17:55:04;;;;;;;4.15;1.92;;;29.00;99.90;;;;;;8258000;28;20310;-64
2022/07/29 17:59:09;;;;;;;6.85;2.38;;;29.00;99.90;;;;;;8276063;28;20243;-64
2022/07/29 18:03:09;;;;;;;5.93;2.17;;;28.80;99.90;;;;;;8273892;28;20187;-64
2022/07/29 18:07:10;;;;;;;2.65;1.98;;;28.30;99.90;;;;;;8276491;28;20519;-64
2022/07/29 18:11:11;;;;;;;4.50;2.10;;;27.60;99.90;;;;;;8261358;28;20282;-64
2022/07/29 18:15:13;;;;;;;3.80;2.13;;;26.80;1.00;;;;;;8260386;28;20255;-64
2022/07/29 18:19:14;;;;;;;5.90;2.27;;;26.20;1.00;;;;;;8276155;28;20242;-64
2022/07/29 18:23:15;;;;;;;3.00;2.07;;;25.70;1.00;;;;;;8264377;28;20192;-65
2022/07/29 18:27:16;;;;;;;5.63;1.93;;;25.40;1.00;;;;;;8269196;28;20183;-67
2022/07/29 18:31:17;;;;;;;5.20;2.20;;;25.10;1.00;;;;;;8272319;28;20313;-64
2022/07/29 18:35:18;;;;;;;5.00;2.20;;;24.80;1.00;;;;;;8280402;28;20184;-66
2022/07/29 18:39:19;;;;;;;4.93;2.03;;;24.50;1.00;;;;;;8259067;28;20187;-65
2022/07/29 18:43:20;;;;;;;5.37;2.40;;;24.20;1.00;;;;;;8274745;28;20196;-64
2022/07/29 18:47:20;;;;;;;3.00;2.30;;;24.00;1.00;;;;;;8256485;28;20309;-64
2022/07/29 18:51:21;;;;;;;7.20;2.50;;;23.80;1.00;;;;;;8263575;28;20318;-64
2022/07/29 18:55:23;;;;;;;3.17;2.40;;;23.50;1.00;;;;;;8269707;28;20305;-65
2022/07/29 18:59:24;;;;;;;5.03;2.40;;;23.30;1.00;;;;;;8259618;28;20597;-65
2022/07/29 19:03:24;;;;;;;8.03;2.83;;;23.10;1.00;;;;;;8254274;28;20280;-66
2022/07/29 19:07:25;;;;;;;4.50;2.50;;;22.90;1.00;;;;;;8249774;28;20188;-63
2022/07/29 19:11:26;;;;;;;7.93;3.10;;;22.70;1.00;;;;;;8271003;28;20195;-64
2022/07/29 19:15:27;;;;;;;5.33;2.57;;;22.50;1.00;;;;;;8268146;28;20214;-64
2022/07/29 19:19:28;;;;;;;4.77;2.37;;;22.40;1.00;;;;;;8267261;28;20263;-64
2022/07/29 19:23:29;;;;;;;5.93;3.10;;;22.20;1.00;;;;;;8259502;28;20198;-63
2022/07/29 19:27:30;;;;;;;3.37;2.47;;;22.10;1.00;;;;;;8259946;28;20192;-61
2022/07/29 19:31:31;;;;;;;4.87;2.67;;;21.90;1.00;;;;;;8252971;28;20261;-61
2022/07/29 19:35:32;;;;;;;2.43;2.20;;;21.70;1.00;;;;;;8289683;28;20266;-61
2022/07/29 19:39:33;;;;;;;3.23;2.40;;;21.50;1.00;;;;;;8283269;28;20196;-62
2022/07/29 19:43:34;;;;;;;7.27;2.77;;;21.20;1.00;;;;;;8273838;28;20195;-63
2022/07/29 19:47:35;;;;;;;7.77;3.13;;;20.90;1.00;;;;;;8272060;28;20238;-61
2022/07/29 19:51:36;;;;;;;13.20;11.80;;;20.60;1.00;;;;;;8270068;28;20226;-61
2022/07/29 19:55:36;;;;;;;8.20;6.80;;;20.50;1.00;;;;;;8272447;28;20290;-62
2022/07/29 19:59:37;;;;;;;4.63;3.47;;;20.40;1.00;;;;;;8274546;28;20594;-61
2022/07/29 20:03:38;;;;;;;5.83;4.77;;;20.40;1.00;;;;;;8265057;28;20191;-62
2022/07/29 20:07:39;;;;;;;6.70;2.70;;;20.40;1.00;;;;;;8286543;28;20202;-63
2022/07/29 20:11:40;;;;;;;3.67;3.00;;;20.40;1.00;;;;;;8252003;28;20223;-62
2022/07/29 20:15:41;;;;;;;4.37;2.70;;;20.30;1.00;;;;;;8252717;28;20355;-63
2022/07/29 20:19:42;;;;;;;6.97;3.30;;;20.20;1.00;;;;;;8253049;28;20191;-62
2022/07/29 20:23:43;;;;;;;4.60;2.50;;;20.10;1.00;;;;;;8272568;28;20216;-62
2022/07/29 20:27:44;;;;;;;3.03;2.37;;;19.90;1.00;;;;;;8252452;28;20196;-62
2022/07/29 20:31:45;;;;;;;5.30;3.17;;;19.70;1.00;;;;;;8250455;28;20207;-61
2022/07/29 20:35:46;;;;;;;3.97;2.37;;;19.60;1.00;;;;;;8253231;28;20592;-62
2022/07/29 20:39:47;;;;;;;4.67;3.10;;;19.40;1.00;;;;;;8255617;28;20192;-63
2022/07/29 20:43:51;;;;;;;4.70;3.10;;;19.20;1.00;;;;;;8266104;28;20225;-63
2022/07/29 20:47:52;;;;;;;3.70;2.57;;;18.90;41.40;;;;;;8260581;28;20241;-64
2022/07/29 20:51:53;;;;;;;2.80;2.50;;;18.70;55.40;;;;;;8253921;28;20215;-64
2022/07/29 20:55:54;;;;;;;3.10;2.23;;;18.40;95.90;;;;;;8265908;28;20505;-64
2022/07/29 20:59:55;;;;;;;2.93;2.57;;;18.20;94.50;;;;;;8272364;28;20183;-64
2022/07/29 21:03:56;;;;;;;2.40;2.20;;;18.10;90.60;;;;;;8257524;28;20195;-64
2022/07/29 21:07:56;;;;;;;3.03;2.17;;;17.90;99.90;;;;;;8260331;28;20191;-64
2022/07/29 21:11:59;;;;;;;2.47;2.20;;;17.70;99.90;;;;;;8252787;28;20223;-64
2022/07/29 21:16:00;;;;;;;2.50;2.30;;;17.60;99.90;;;;;;8257089;28;20198;-64
2022/07/29 21:20:03;;;;;;;3.10;2.40;;;17.40;99.90;;;;;;8256940;28;20279;-64
2022/07/29 21:24:06;;;;;;;3.13;2.30;;;17.30;99.90;;;;;;8271624;28;20191;-64
2022/07/29 21:28:25;;;;;;;3.80;2.47;;;17.10;99.90;;;;;;8269625;28;20250;-64
2022/07/29 21:32:26;;;;;;;3.07;2.53;;;17.00;99.90;;;;;;8262080;28;20210;-64